createdAt,value
2022-10-03T00:01:00.987Z,2.53
2022-10-03T00:03:37.761Z,2.80
2022-10-03T00:06:15.397Z,2.40
2022-10-03T00:09:04.975Z,3.50
2022-10-03T00:11:43.782Z,4.10
2022-10-03T00:14:19.789Z,3.73
2022-10-03T00:17:04.300Z,3.70
2022-10-03T00:19:45.880Z,4.37
2022-10-03T00:22:23.493Z,3.70
2022-10-03T00:25:03.483Z,4.27
2022-10-03T00:27:38.220Z,3.73
2022-10-03T00:30:18.570Z,4.37
2022-10-03T00:33:06.091Z,4.13
2022-10-03T00:35:51.012Z,4.10
2022-10-03T00:38:37.837Z,4.40
2022-10-03T00:41:23.783Z,5.50
2022-10-03T00:44:29.893Z,4.97
2022-10-03T00:47:25.880Z,4.90
2022-10-03T00:50:20.917Z,4.73
2022-10-03T00:53:10.965Z,5.10
2022-10-03T00:55:52.159Z,4.83
2022-10-03T00:58:39.247Z,5.40
2022-10-03T01:01:24.610Z,4.57
2022-10-03T01:04:05.647Z,5.10
2022-10-03T01:06:43.325Z,4.00
2022-10-03T01:09:31.147Z,4.63
2022-10-03T01:12:15.756Z,4.00
2022-10-03T01:15:01.004Z,4.20
2022-10-03T01:17:40.061Z,4.07
2022-10-03T01:20:19.627Z,3.93
2022-10-03T01:23:27.628Z,5.27
2022-10-03T01:26:09.373Z,4.90
2022-10-03T01:29:05.992Z,5.30
2022-10-03T01:31:45.487Z,4.20
2022-10-03T01:34:23.237Z,5.80
2022-10-03T01:37:06.322Z,5.77
2022-10-03T01:39:43.419Z,5.23
2022-10-03T01:42:18.817Z,4.40
2022-10-03T01:45:05.120Z,4.97
2022-10-03T01:47:42.101Z,3.90
2022-10-03T01:50:19.661Z,3.73
2022-10-03T01:52:54.762Z,3.73
2022-10-03T01:55:31.090Z,3.00
2022-10-03T01:58:03.786Z,3.07
2022-10-03T02:00:44.066Z,2.87
2022-10-03T02:03:18.124Z,3.33
2022-10-03T02:05:55.536Z,3.50
2022-10-03T02:08:36.576Z,3.70
2022-10-03T02:11:07.387Z,3.60
2022-10-03T02:13:46.855Z,3.80
2022-10-03T02:16:30.332Z,3.03
2022-10-03T02:19:06.345Z,3.40
2022-10-03T02:21:35.531Z,2.30
2022-10-03T02:24:18.898Z,2.77
2022-10-03T02:27:14.196Z,2.80
2022-10-03T02:30:07.143Z,2.57
2022-10-03T02:33:04.751Z,3.23
2022-10-03T02:36:05.285Z,3.17
2022-10-03T02:39:03.732Z,3.30
2022-10-03T02:41:52.434Z,3.17
2022-10-03T02:44:50.727Z,3.43
2022-10-03T02:48:30.271Z,2.93
2022-10-03T02:51:33.477Z,3.50
2022-10-03T02:54:37.599Z,4.07
2022-10-03T02:57:39.023Z,4.17
2022-10-03T03:00:12.970Z,4.33
2022-10-03T03:03:16.947Z,4.33
2022-10-03T03:06:20.149Z,4.80
2022-10-03T03:09:23.327Z,4.60
2022-10-03T03:12:18.108Z,4.73
2022-10-03T03:15:31.908Z,5.10
2022-10-03T03:18:07.691Z,4.93
2022-10-03T03:20:57.942Z,5.03
2022-10-03T03:23:41.573Z,4.80
2022-10-03T03:26:35.604Z,5.53
2022-10-03T03:29:15.720Z,5.40
2022-10-03T03:31:54.602Z,6.27
2022-10-03T03:34:32.612Z,6.67
2022-10-03T03:37:08.327Z,6.37
2022-10-03T03:39:51.488Z,5.97
2022-10-03T03:42:43.104Z,7.30
2022-10-03T03:45:32.205Z,6.83
2022-10-03T03:48:15.554Z,7.20
2022-10-03T03:50:52.950Z,6.67
2022-10-03T03:54:00.599Z,7.40
2022-10-03T03:56:46.620Z,7.10
2022-10-03T03:59:31.169Z,7.17
2022-10-03T04:02:09.639Z,7.23
2022-10-03T04:04:52.061Z,7.17
2022-10-03T04:07:30.729Z,6.50
2022-10-03T04:10:16.939Z,7.27
2022-10-03T04:13:04.873Z,6.53
2022-10-03T04:15:55.085Z,6.20
2022-10-03T04:18:56.955Z,6.80
2022-10-03T04:21:50.527Z,6.47
2022-10-03T04:24:43.859Z,6.47
2022-10-03T04:27:30.053Z,6.33
2022-10-03T04:30:07.514Z,7.53
2022-10-03T04:32:52.404Z,6.40
2022-10-03T04:35:48.948Z,6.03
2022-10-03T04:38:32.303Z,5.90
2022-10-03T04:41:12.363Z,6.03
2022-10-03T04:43:45.514Z,5.07
2022-10-03T04:46:27.173Z,5.57
2022-10-03T04:49:04.044Z,6.00
2022-10-03T04:51:45.754Z,5.20
2022-10-03T04:54:25.985Z,5.20
2022-10-03T04:57:01.729Z,4.43
2022-10-03T04:59:42.404Z,4.80
2022-10-03T05:02:24.522Z,5.10
2022-10-03T05:05:11.075Z,5.37
2022-10-03T05:07:46.922Z,5.57
2022-10-03T05:10:48.407Z,6.10
2022-10-03T05:13:30.341Z,5.87
2022-10-03T05:16:08.943Z,5.60
2022-10-03T05:18:42.644Z,6.33
2022-10-03T05:21:16.023Z,6.20
2022-10-03T05:24:02.726Z,6.30
2022-10-03T05:26:45.502Z,6.33
2022-10-03T05:29:26.116Z,5.33
2022-10-03T05:32:09.595Z,5.27
2022-10-03T05:34:52.324Z,5.80
2022-10-03T05:37:41.466Z,5.87
2022-10-03T05:40:18.181Z,6.33
2022-10-03T05:43:06.523Z,6.07
2022-10-03T05:45:49.907Z,6.43
2022-10-03T05:48:32.994Z,5.93
2022-10-03T05:51:43.277Z,5.77
2022-10-03T05:54:30.975Z,5.17
2022-10-03T05:57:20.611Z,5.77
2022-10-03T06:00:18.382Z,5.50
2022-10-03T06:03:13.496Z,5.00
2022-10-03T06:06:05.299Z,4.80
2022-10-03T06:08:56.844Z,4.87
2022-10-03T06:11:47.783Z,5.00
2022-10-03T06:14:44.607Z,4.60
2022-10-03T06:17:43.437Z,4.67
2022-10-03T06:20:41.504Z,6.10
2022-10-03T06:23:43.200Z,5.23
2022-10-03T06:26:44.863Z,5.23
2022-10-03T06:29:43.826Z,5.60
2022-10-03T06:32:28.387Z,7.43
2022-10-03T06:35:30.221Z,6.43
2022-10-03T06:38:33.097Z,5.90
2022-10-03T06:41:34.336Z,6.50
2022-10-03T06:44:16.782Z,5.70
2022-10-03T06:47:13.491Z,6.83
2022-10-03T06:50:05.180Z,6.47
2022-10-03T06:52:51.954Z,7.00
2022-10-03T06:56:05.249Z,6.50
2022-10-03T06:58:59.157Z,6.43
2022-10-03T07:02:11.594Z,6.13
2022-10-03T07:05:17.849Z,6.40
2022-10-03T07:08:24.691Z,6.77
2022-10-03T07:11:07.750Z,6.73
2022-10-03T07:13:54.212Z,8.03
2022-10-03T07:16:50.671Z,8.27
2022-10-03T07:19:54.179Z,7.97
2022-10-03T07:22:43.747Z,9.77
2022-10-03T07:25:47.454Z,8.83
2022-10-03T07:29:12.011Z,8.73
2022-10-03T07:31:58.328Z,9.80
2022-10-03T07:35:27.067Z,12.17
2022-10-03T07:38:48.581Z,12.60
2022-10-03T07:41:45.772Z,12.23
2022-10-03T07:44:47.225Z,13.00
2022-10-03T07:47:59.855Z,13.30
2022-10-03T07:50:51.200Z,13.47
2022-10-03T07:53:58.734Z,12.63
2022-10-03T07:56:44.423Z,12.70
2022-10-03T07:59:43.852Z,12.17
2022-10-03T08:02:40.145Z,13.53
2022-10-03T08:05:25.133Z,12.60
2022-10-03T08:08:29.005Z,12.43
2022-10-03T08:11:42.680Z,12.60
2022-10-03T08:14:20.246Z,12.23
2022-10-03T08:17:26.807Z,12.63
2022-10-03T08:20:21.311Z,13.50
2022-10-03T08:23:03.198Z,14.20
2022-10-03T08:25:48.563Z,13.10
2022-10-03T08:28:38.836Z,12.63
2022-10-03T08:31:43.739Z,12.73
2022-10-03T08:34:38.966Z,12.90
2022-10-03T08:37:26.427Z,13.93
2022-10-03T08:40:22.419Z,12.60
2022-10-03T08:43:30.949Z,11.57
2022-10-03T08:46:17.337Z,10.57
2022-10-03T08:48:59.888Z,10.97
2022-10-03T08:51:55.326Z,12.60
2022-10-03T08:54:52.751Z,11.17
2022-10-03T08:57:38.527Z,10.67
2022-10-03T09:00:15.299Z,11.10
2022-10-03T09:03:33.431Z,13.03
2022-10-03T09:07:16.560Z,13.80
2022-10-03T09:10:25.438Z,13.40
2022-10-03T09:13:22.908Z,13.93
2022-10-03T09:16:18.782Z,10.80
2022-10-03T09:19:03.673Z,12.13
2022-10-03T09:22:06.544Z,11.30
2022-10-03T09:25:02.137Z,13.60
2022-10-03T09:28:09.802Z,11.73
2022-10-03T09:30:54.727Z,10.50
2022-10-03T09:34:15.047Z,9.90
2022-10-03T09:37:21.319Z,11.30
2022-10-03T09:40:18.970Z,10.50
2022-10-03T09:43:28.295Z,10.50
2022-10-03T09:46:19.219Z,10.20
2022-10-03T09:49:18.915Z,9.77
2022-10-03T09:52:00.563Z,9.40
2022-10-03T09:54:55.052Z,10.07
2022-10-03T09:57:59.516Z,9.77
2022-10-03T10:00:33.122Z,9.33
2022-10-03T10:03:51.825Z,9.27
2022-10-03T10:06:42.806Z,8.70
2022-10-03T10:09:41.806Z,15.80
2022-10-03T10:12:47.917Z,9.47
2022-10-03T10:15:36.934Z,10.17
2022-10-03T10:18:33.355Z,15.63
2022-10-03T10:21:43.011Z,9.33
2022-10-03T10:24:46.695Z,9.67
2022-10-03T10:27:55.780Z,8.93
2022-10-03T10:30:40.044Z,9.23
2022-10-03T10:33:42.542Z,8.17
2022-10-03T10:36:47.753Z,8.67
2022-10-03T10:39:51.190Z,8.03
2022-10-03T10:42:51.017Z,8.67
2022-10-03T10:45:45.653Z,7.37
2022-10-03T10:48:46.979Z,7.40
2022-10-03T10:51:45.278Z,7.60
2022-10-03T10:54:46.249Z,7.50
2022-10-03T10:57:24.212Z,7.47
2022-10-03T11:00:12.224Z,6.73
2022-10-03T11:03:33.915Z,7.70
2022-10-03T11:06:58.653Z,7.67
2022-10-03T11:10:08.399Z,6.67
2022-10-03T11:13:21.922Z,7.33
2022-10-03T11:16:44.096Z,7.20
2022-10-03T11:19:51.523Z,7.07
2022-10-03T11:23:09.331Z,7.63
2022-10-03T11:26:15.249Z,8.20
2022-10-03T11:29:15.828Z,7.57
2022-10-03T11:32:16.811Z,7.87
2022-10-03T11:35:29.166Z,7.43
2022-10-03T11:38:04.079Z,7.27
2022-10-03T11:40:42.226Z,6.33
2022-10-03T11:43:52.713Z,6.00
2022-10-03T11:46:37.361Z,6.43
2022-10-03T11:49:16.183Z,7.00
2022-10-03T11:51:53.546Z,6.90
2022-10-03T11:54:31.592Z,6.83
2022-10-03T11:57:02.872Z,6.13
2022-10-03T11:59:37.428Z,6.23
2022-10-03T12:02:14.211Z,6.13
2022-10-03T12:04:52.172Z,5.63
2022-10-03T12:07:58.424Z,6.07
2022-10-03T12:10:39.898Z,6.40
2022-10-03T12:13:16.692Z,5.40
2022-10-03T12:15:48.652Z,5.10
2022-10-03T12:18:26.003Z,5.87
2022-10-03T12:21:13.165Z,5.87
2022-10-03T12:24:08.075Z,5.90
2022-10-03T12:26:49.484Z,4.70
2022-10-03T12:29:21.018Z,5.30
2022-10-03T12:32:02.494Z,5.00
2022-10-03T12:34:40.590Z,5.37
2022-10-03T12:37:27.569Z,5.27
2022-10-03T12:40:04.453Z,5.00
2022-10-03T12:42:38.756Z,4.87
2022-10-03T12:45:17.909Z,4.43
2022-10-03T12:47:59.734Z,4.73
2022-10-03T12:50:43.851Z,4.80
2022-10-03T12:53:33.020Z,7.33
2022-10-03T12:56:07.759Z,4.60
2022-10-03T12:58:51.732Z,4.17
2022-10-03T13:01:29.525Z,4.90
2022-10-03T13:04:02.419Z,4.27
2022-10-03T13:07:02.378Z,4.50
2022-10-03T13:09:42.245Z,3.63
2022-10-03T13:12:26.830Z,4.03
2022-10-03T13:15:42.132Z,3.93
2022-10-03T13:18:50.982Z,3.57
2022-10-03T13:21:44.498Z,4.00
2022-10-03T13:24:22.237Z,4.83
2022-10-03T13:27:00.433Z,3.63
2022-10-03T13:29:34.668Z,3.63
2022-10-03T13:32:18.332Z,4.23
2022-10-03T13:35:23.214Z,3.73
2022-10-03T13:38:12.196Z,3.63
2022-10-03T13:40:46.359Z,3.50
2022-10-03T13:43:21.253Z,3.70
2022-10-03T13:45:51.354Z,3.50
2022-10-03T13:48:23.901Z,3.10
2022-10-03T13:51:01.844Z,3.67
2022-10-03T13:53:53.729Z,3.37
2022-10-03T13:56:37.978Z,3.70
2022-10-03T13:59:13.925Z,2.80
2022-10-03T14:01:51.727Z,3.63
2022-10-03T14:04:48.540Z,2.70
2022-10-03T14:07:25.079Z,3.80
2022-10-03T14:10:13.934Z,3.30
2022-10-03T14:13:04.796Z,3.10
2022-10-03T14:15:45.221Z,3.10
2022-10-03T14:18:25.280Z,3.13
2022-10-03T14:21:36.045Z,3.27
2022-10-03T14:24:16.813Z,2.73
2022-10-03T14:26:52.968Z,3.57
2022-10-03T14:29:27.787Z,2.80
2022-10-03T14:32:02.728Z,3.17
2022-10-03T14:34:48.011Z,3.03
2022-10-03T14:37:26.697Z,3.20
2022-10-03T14:40:13.535Z,2.90
2022-10-03T14:42:57.947Z,2.73
2022-10-03T14:45:30.067Z,2.67
2022-10-03T14:48:05.489Z,2.67
2022-10-03T14:50:34.605Z,2.80
2022-10-03T14:53:06.807Z,3.50
2022-10-03T14:55:44.958Z,2.73
2022-10-03T14:58:18.837Z,3.27
2022-10-03T15:00:49.694Z,2.77
2022-10-03T15:03:25.103Z,2.63
2022-10-03T15:06:01.617Z,2.77
2022-10-03T15:08:36.112Z,2.63
2022-10-03T15:11:07.612Z,2.80
2022-10-03T15:13:42.570Z,2.90
2022-10-03T15:16:16.002Z,2.50
2022-10-03T15:18:57.354Z,3.20
2022-10-03T15:21:27.287Z,3.03
2022-10-03T15:23:58.245Z,2.63
2022-10-03T15:26:31.421Z,2.43
2022-10-03T15:29:03.807Z,3.20
2022-10-03T15:31:36.072Z,2.97
2022-10-03T15:34:08.286Z,2.50
2022-10-03T15:36:39.452Z,3.10
2022-10-03T15:39:19.914Z,2.83
2022-10-03T15:41:55.736Z,2.80
2022-10-03T15:44:32.958Z,3.00
2022-10-03T15:47:07.093Z,2.87
2022-10-03T15:49:39.409Z,2.90
2022-10-03T15:52:15.823Z,2.87
2022-10-03T15:54:47.873Z,2.83
2022-10-03T15:57:25.419Z,2.87
2022-10-03T16:00:02.051Z,3.40
2022-10-03T16:02:40.446Z,3.23
2022-10-03T16:05:19.575Z,3.53
2022-10-03T16:07:58.337Z,3.10
2022-10-03T16:10:29.569Z,2.90
2022-10-03T16:13:07.867Z,3.13
2022-10-03T16:15:55.650Z,2.73
2022-10-03T16:18:48.452Z,7.27
2022-10-03T16:21:29.238Z,6.37
2022-10-03T16:24:00.580Z,3.87
2022-10-03T16:26:31.530Z,3.60
2022-10-03T16:29:13.197Z,3.50
2022-10-03T16:31:47.263Z,4.03
2022-10-03T16:34:17.772Z,3.80
2022-10-03T16:36:47.628Z,3.30
2022-10-03T16:39:22.095Z,3.97
2022-10-03T16:41:54.285Z,3.63
2022-10-03T16:44:29.024Z,3.83
2022-10-03T16:47:02.991Z,3.93
2022-10-03T16:50:01.512Z,5.30
2022-10-03T16:52:34.602Z,5.57
2022-10-03T16:55:06.926Z,4.40
2022-10-03T16:57:45.648Z,3.93
2022-10-03T17:00:21.426Z,4.60
2022-10-03T17:02:49.853Z,4.20
2022-10-03T17:05:19.128Z,4.10
2022-10-03T17:07:51.837Z,4.60
2022-10-03T17:10:35.126Z,4.60
2022-10-03T17:13:08.356Z,4.67
2022-10-03T17:15:48.537Z,5.47
2022-10-03T17:18:26.160Z,5.47
2022-10-03T17:20:57.211Z,6.10
2022-10-03T17:23:35.799Z,5.30
2022-10-03T17:26:10.107Z,5.40
2022-10-03T17:28:44.530Z,6.23
2022-10-03T17:31:30.438Z,6.03
2022-10-03T17:34:10.461Z,6.30
2022-10-03T17:37:16.274Z,5.93
2022-10-03T17:39:55.099Z,5.73
2022-10-03T17:42:38.412Z,5.23
2022-10-03T17:45:19.936Z,5.57
2022-10-03T17:47:56.778Z,6.07
2022-10-03T17:50:31.409Z,5.43
2022-10-03T17:53:01.581Z,6.70
2022-10-03T17:55:32.787Z,7.43
2022-10-03T17:58:05.826Z,9.03
2022-10-03T18:00:56.554Z,10.63
2022-10-03T18:03:30.988Z,12.10
2022-10-03T18:06:04.324Z,8.97
2022-10-03T18:08:37.722Z,8.07
2022-10-03T18:11:06.690Z,8.80
2022-10-03T18:13:39.607Z,8.53
2022-10-03T18:16:21.472Z,7.50
2022-10-03T18:19:21.798Z,6.57
2022-10-03T18:22:02.272Z,7.93
2022-10-03T18:24:44.410Z,7.27
2022-10-03T18:27:42.458Z,6.53
2022-10-03T18:30:17.547Z,6.70
2022-10-03T18:32:47.721Z,6.63
2022-10-03T18:35:22.202Z,6.40
2022-10-03T18:38:02.700Z,5.90
2022-10-03T18:40:34.696Z,7.97
2022-10-03T18:43:05.924Z,8.17
2022-10-03T18:45:44.805Z,6.80
2022-10-03T18:48:19.190Z,7.10
2022-10-03T18:51:11.385Z,7.23
2022-10-03T18:53:44.652Z,7.40
2022-10-03T18:56:14.472Z,6.87
2022-10-03T18:58:46.632Z,7.23
2022-10-03T19:01:20.484Z,9.33
2022-10-03T19:03:58.160Z,7.97
2022-10-03T19:06:30.423Z,8.47
2022-10-03T19:09:03.251Z,10.47
2022-10-03T19:11:34.687Z,9.50
2022-10-03T19:14:09.026Z,9.60
2022-10-03T19:16:59.310Z,11.20
2022-10-03T19:19:33.665Z,12.00
2022-10-03T19:22:06.737Z,11.67
2022-10-03T19:24:57.169Z,10.60
2022-10-03T19:27:30.365Z,8.20
2022-10-03T19:30:00.132Z,8.40
2022-10-03T19:32:32.053Z,7.77
2022-10-03T19:35:03.919Z,9.30
2022-10-03T19:37:45.511Z,9.33
2022-10-03T19:40:16.771Z,6.77
2022-10-03T19:42:49.504Z,6.57
2022-10-03T19:45:19.982Z,5.67
2022-10-03T19:47:53.355Z,5.83
2022-10-03T19:50:26.792Z,5.27
2022-10-03T19:52:57.059Z,5.70
2022-10-03T19:55:31.011Z,5.17
2022-10-03T19:58:02.304Z,5.47
2022-10-03T20:00:33.049Z,5.57
2022-10-03T20:03:14.724Z,6.20
2022-10-03T20:05:50.696Z,6.47
2022-10-03T20:08:32.151Z,6.10
2022-10-03T20:11:33.411Z,7.40
2022-10-03T20:14:02.613Z,7.57
2022-10-03T20:16:35.804Z,8.33
2022-10-03T20:19:09.924Z,10.70
2022-10-03T20:21:38.345Z,9.40
2022-10-03T20:24:14.283Z,7.93
2022-10-03T20:26:48.133Z,7.47
2022-10-03T20:29:26.187Z,8.03
2022-10-03T20:32:00.241Z,7.13
2022-10-03T20:34:28.499Z,6.43
2022-10-03T20:37:08.267Z,6.07
2022-10-03T20:39:41.627Z,5.87
2022-10-03T20:42:15.326Z,6.17
2022-10-03T20:45:02.437Z,6.30
2022-10-03T20:47:52.261Z,5.83
2022-10-03T20:50:25.846Z,5.90
2022-10-03T20:52:55.643Z,7.23
2022-10-03T20:55:27.711Z,6.77
2022-10-03T20:58:11.175Z,7.30
2022-10-03T21:00:46.310Z,7.63
2022-10-03T21:03:26.312Z,6.80
2022-10-03T21:05:57.187Z,8.13
2022-10-03T21:08:28.465Z,7.73
2022-10-03T21:11:00.146Z,7.90
2022-10-03T21:13:33.577Z,8.20
2022-10-03T21:16:03.889Z,7.03
2022-10-03T21:18:34.941Z,7.30
2022-10-03T21:21:08.755Z,7.60
2022-10-03T21:23:42.615Z,7.27
2022-10-03T21:26:13.083Z,7.10
2022-10-03T21:28:40.995Z,6.70
2022-10-03T21:31:22.607Z,6.40
2022-10-03T21:34:00.986Z,5.83
2022-10-03T21:36:49.316Z,5.57
2022-10-03T21:39:22.000Z,5.33
2022-10-03T21:42:06.090Z,5.67
2022-10-03T21:44:57.302Z,6.27
2022-10-03T21:47:43.853Z,5.83
2022-10-03T21:50:18.820Z,5.40
2022-10-03T21:53:10.177Z,5.57
2022-10-03T21:55:53.059Z,5.63
2022-10-03T21:58:49.853Z,6.10
2022-10-03T22:01:27.057Z,6.33
2022-10-03T22:04:00.799Z,7.00
2022-10-03T22:06:33.684Z,7.70
2022-10-03T22:09:03.274Z,6.50
2022-10-03T22:11:43.286Z,6.70
2022-10-03T22:14:22.484Z,6.87
2022-10-03T22:16:57.652Z,7.10
2022-10-03T22:19:34.522Z,7.90
2022-10-03T22:22:22.840Z,7.43
2022-10-03T22:25:11.602Z,6.87
2022-10-03T22:27:48.528Z,6.73
2022-10-03T22:30:19.806Z,6.97
2022-10-03T22:33:02.193Z,6.87
2022-10-03T22:35:49.268Z,6.77
2022-10-03T22:38:18.516Z,8.13
2022-10-03T22:40:51.473Z,8.53
2022-10-03T22:43:20.869Z,7.40
2022-10-03T22:45:52.331Z,10.23
2022-10-03T22:48:25.167Z,10.47
2022-10-03T22:50:54.967Z,9.47
2022-10-03T22:53:27.085Z,8.90
2022-10-03T22:56:17.748Z,10.00
2022-10-03T22:58:45.864Z,11.40
2022-10-03T23:01:15.243Z,11.10
2022-10-03T23:03:43.313Z,9.00
2022-10-03T23:06:31.967Z,7.40
2022-10-03T23:09:09.691Z,8.07
2022-10-03T23:11:40.107Z,7.93
2022-10-03T23:14:16.261Z,8.53
2022-10-03T23:16:54.055Z,10.90
2022-10-03T23:19:40.923Z,7.70
2022-10-03T23:22:15.109Z,9.77
2022-10-03T23:24:47.691Z,10.50
2022-10-03T23:27:50.281Z,10.60
2022-10-03T23:30:55.257Z,7.90
2022-10-03T23:33:53.155Z,8.57
2022-10-03T23:36:25.326Z,7.83
2022-10-03T23:39:01.221Z,6.50
2022-10-03T23:41:58.775Z,6.60
2022-10-03T23:44:43.635Z,5.87
2022-10-03T23:47:18.223Z,6.00
2022-10-03T23:49:51.483Z,5.87
2022-10-03T23:52:24.331Z,6.07
2022-10-03T23:54:55.777Z,5.60
2022-10-03T23:57:28.199Z,5.53
2022-10-03T23:59:56.507Z,5.40
